createdAt,value
2022-12-14T00:02:32.138Z,100268.86
2022-12-14T00:05:04.678Z,100267.37
2022-12-14T00:07:36.851Z,100267.85
2022-12-14T00:10:10.730Z,100268.47
2022-12-14T00:12:43.050Z,100269.36
2022-12-14T00:15:15.393Z,100260.81
2022-12-14T00:17:47.467Z,100254.84
2022-12-14T00:20:19.699Z,100231.48
2022-12-14T00:22:51.790Z,100245.83
2022-12-14T00:25:23.970Z,100242.95
2022-12-14T00:27:56.716Z,100245.77
2022-12-14T00:30:29.004Z,100238.46
2022-12-14T00:33:01.106Z,100238.08
2022-12-14T00:35:33.198Z,100232.05
2022-12-14T00:38:05.833Z,100236.42
2022-12-14T00:40:38.459Z,100244.10
2022-12-14T00:43:10.588Z,100237.42
2022-12-14T00:45:44.475Z,100230.41
2022-12-14T00:48:18.816Z,100231.89
2022-12-14T00:50:52.272Z,100236.64
2022-12-14T00:53:26.099Z,100236.04
2022-12-14T00:55:58.243Z,100228.58
2022-12-14T00:58:31.135Z,100222.77
2022-12-14T01:01:06.077Z,100220.88
2022-12-14T01:03:38.529Z,100210.50
2022-12-14T01:06:16.302Z,100224.60
2022-12-14T01:08:49.821Z,100223.60
2022-12-14T01:11:22.179Z,100225.86
2022-12-14T01:13:56.439Z,100231.14
2022-12-14T01:16:28.693Z,100228.89
2022-12-14T01:19:02.319Z,100226.66
2022-12-14T01:21:34.889Z,100223.28
2022-12-14T01:24:08.817Z,100221.33
2022-12-14T01:26:42.536Z,100220.80
2022-12-14T01:29:16.407Z,100216.56
2022-12-14T01:31:49.142Z,100211.75
2022-12-14T01:34:22.042Z,100212.30
2022-12-14T01:36:54.366Z,100209.41
2022-12-14T01:39:27.108Z,100208.61
2022-12-14T01:41:59.418Z,100202.23
2022-12-14T01:44:58.695Z,100198.31
2022-12-14T01:47:37.573Z,100200.66
2022-12-14T01:50:18.097Z,100195.71
2022-12-14T01:52:54.745Z,100164.70
2022-12-14T01:55:29.114Z,100180.99
2022-12-14T01:58:06.471Z,100181.96
2022-12-14T02:00:39.508Z,100185.21
2022-12-14T02:03:15.255Z,100180.00
2022-12-14T02:05:52.427Z,100175.34
2022-12-14T02:08:26.904Z,100183.08
2022-12-14T02:10:58.147Z,100184.63
2022-12-14T02:13:33.078Z,100179.95
2022-12-14T02:16:05.858Z,100183.17
2022-12-14T02:18:38.146Z,100184.84
2022-12-14T02:21:22.728Z,100186.30
2022-12-14T02:24:39.977Z,100181.98
2022-12-14T02:27:38.204Z,100181.31
2022-12-14T02:30:15.282Z,100181.27
2022-12-14T02:33:23.293Z,100180.24
2022-12-14T02:36:01.105Z,100175.33
2022-12-14T02:38:47.334Z,100177.88
2022-12-14T02:41:24.826Z,100177.70
2022-12-14T02:44:06.803Z,100177.70
2022-12-14T02:46:50.521Z,100172.20
2022-12-14T02:49:38.629Z,100172.81
2022-12-14T02:52:18.499Z,100174.17
2022-12-14T02:54:56.378Z,100171.44
2022-12-14T02:57:33.310Z,100170.20
2022-12-14T03:00:07.990Z,100165.98
2022-12-14T03:02:44.009Z,100168.77
2022-12-14T03:05:17.676Z,100173.84
2022-12-14T03:07:53.817Z,100166.13
2022-12-14T03:10:34.603Z,100166.66
2022-12-14T03:13:14.515Z,100168.75
2022-12-14T03:15:49.735Z,100166.67
2022-12-14T03:18:24.602Z,100165.38
2022-12-14T03:21:00.840Z,100168.13
2022-12-14T03:23:37.120Z,100165.30
2022-12-14T03:26:15.423Z,100166.68
2022-12-14T03:28:51.671Z,100165.92
2022-12-14T03:31:27.481Z,100150.21
2022-12-14T03:34:04.069Z,100168.70
2022-12-14T03:36:43.314Z,100170.02
2022-12-14T03:39:20.545Z,100163.73
2022-12-14T03:41:59.155Z,100162.83
2022-12-14T03:44:44.729Z,100158.55
2022-12-14T03:47:41.021Z,100148.86
2022-12-14T03:50:17.182Z,100144.98
2022-12-14T03:52:56.575Z,100117.24
2022-12-14T03:55:36.434Z,100144.48
2022-12-14T03:58:20.553Z,100146.79
2022-12-14T04:00:56.836Z,100149.44
2022-12-14T04:03:39.612Z,100143.48
2022-12-14T04:06:19.792Z,100138.85
2022-12-14T04:09:00.767Z,100141.17
2022-12-14T04:12:06.154Z,100140.94
2022-12-14T04:15:02.244Z,100140.60
2022-12-14T04:17:55.159Z,100146.26
2022-12-14T04:20:32.203Z,100145.61
2022-12-14T04:23:13.913Z,100147.60
2022-12-14T04:26:06.768Z,100144.32
2022-12-14T04:29:00.785Z,100142.00
2022-12-14T04:31:37.170Z,100136.95
2022-12-14T04:34:12.723Z,100136.63
2022-12-14T04:36:50.638Z,100133.66
2022-12-14T04:39:27.601Z,100128.63
2022-12-14T04:42:04.380Z,100109.98
2022-12-14T04:44:38.818Z,100117.95
2022-12-14T04:47:15.353Z,100108.91
2022-12-14T04:49:53.452Z,100103.98
2022-12-14T04:52:31.265Z,100101.56
2022-12-14T04:55:11.522Z,100117.88
2022-12-14T04:57:49.830Z,100116.36
2022-12-14T05:00:22.503Z,100116.16
2022-12-14T05:03:12.458Z,100100.12
2022-12-14T05:05:58.175Z,100110.77
2022-12-14T05:08:46.775Z,100105.95
2022-12-14T05:11:52.487Z,100103.71
2022-12-14T05:14:24.212Z,100100.02
2022-12-14T05:16:57.753Z,100101.67
2022-12-14T05:19:30.021Z,100099.12
2022-12-14T05:22:06.256Z,100094.72
2022-12-14T05:24:38.475Z,100074.75
2022-12-14T05:27:11.696Z,100087.26
2022-12-14T05:29:44.785Z,100090.42
2022-12-14T05:32:17.596Z,100087.56
2022-12-14T05:34:49.630Z,100085.02
2022-12-14T05:37:21.690Z,100085.90
2022-12-14T05:39:54.817Z,100082.11
2022-12-14T05:42:27.275Z,100086.88
2022-12-14T05:44:59.460Z,100080.13
2022-12-14T05:47:31.578Z,100088.73
2022-12-14T05:50:03.757Z,100083.59
2022-12-14T05:52:36.154Z,100082.36
2022-12-14T05:55:11.065Z,100076.84
2022-12-14T05:57:43.293Z,100076.40
2022-12-14T06:00:17.408Z,100073.83
2022-12-14T06:02:49.670Z,100075.16
2022-12-14T06:05:21.920Z,100074.45
2022-12-14T06:07:54.945Z,100072.31
2022-12-14T06:10:26.989Z,100068.21
2022-12-14T06:12:59.955Z,100068.04
2022-12-14T06:15:34.240Z,100069.23
2022-12-14T06:18:06.506Z,100067.19
2022-12-14T06:20:38.668Z,100071.58
2022-12-14T06:23:12.359Z,100071.58
2022-12-14T06:25:46.075Z,100064.44
2022-12-14T06:28:18.354Z,100058.23
2022-12-14T06:30:51.434Z,100061.16
2022-12-14T06:33:23.609Z,100066.34
2022-12-14T06:35:59.716Z,100064.43
2022-12-14T06:38:32.266Z,100063.25
2022-12-14T06:41:08.503Z,100061.50
2022-12-14T06:43:44.867Z,100064.39
2022-12-14T06:46:23.596Z,100064.08
2022-12-14T06:48:56.084Z,100063.89
2022-12-14T06:51:28.595Z,100062.73
2022-12-14T06:54:01.288Z,100065.80
2022-12-14T06:56:33.606Z,100065.66
2022-12-14T06:59:06.726Z,100042.23
2022-12-14T07:01:39.508Z,100044.76
2022-12-14T07:04:11.833Z,100063.41
2022-12-14T07:06:44.116Z,100059.77
2022-12-14T07:09:16.632Z,100057.56
2022-12-14T07:11:50.919Z,100052.16
2022-12-14T07:14:21.720Z,100048.36
2022-12-14T07:16:53.949Z,100041.31
2022-12-14T07:19:26.041Z,100044.10
2022-12-14T07:21:58.179Z,100040.08
2022-12-14T07:24:30.521Z,100036.29
2022-12-14T07:27:02.637Z,100040.38
2022-12-14T07:29:35.208Z,100044.63
2022-12-14T07:32:07.535Z,100046.15
2022-12-14T07:34:40.713Z,100047.96
2022-12-14T07:37:14.327Z,100044.05
2022-12-14T07:39:46.640Z,100041.36
2022-12-14T07:42:18.742Z,100038.65
2022-12-14T07:44:52.460Z,100040.38
2022-12-14T07:47:24.515Z,100037.59
2022-12-14T07:49:56.723Z,100033.74
2022-12-14T07:52:31.627Z,100035.70
2022-12-14T07:55:09.766Z,100030.70
2022-12-14T07:57:41.851Z,100027.55
2022-12-14T08:00:17.054Z,100024.52
2022-12-14T08:02:49.164Z,100020.22
2022-12-14T08:05:21.860Z,100021.50
2022-12-14T08:07:54.543Z,100016.00
2022-12-14T08:10:26.715Z,100014.14
2022-12-14T08:12:58.768Z,100008.64
2022-12-14T08:15:31.138Z,100005.62
2022-12-14T08:18:03.189Z,100001.12
2022-12-14T08:20:36.926Z,100003.92
2022-12-14T08:23:09.091Z,99996.55
2022-12-14T08:25:41.445Z,100000.05
2022-12-14T08:28:13.480Z,99995.21
2022-12-14T08:30:45.663Z,99997.81
2022-12-14T08:33:18.015Z,99997.80
2022-12-14T08:35:50.149Z,99995.11
2022-12-14T08:38:22.255Z,99994.90
2022-12-14T08:40:54.793Z,99987.33
2022-12-14T08:43:27.220Z,99979.29
2022-12-14T08:45:59.768Z,99982.40
2022-12-14T08:48:32.441Z,99977.70
2022-12-14T08:51:09.740Z,99961.01
2022-12-14T08:53:42.521Z,99958.58
2022-12-14T08:56:17.150Z,99971.69
2022-12-14T08:58:49.518Z,99974.97
2022-12-14T09:01:30.012Z,99971.95
2022-12-14T09:04:08.519Z,99969.30
2022-12-14T09:06:41.780Z,99961.59
2022-12-14T09:09:16.666Z,99965.08
2022-12-14T09:11:48.975Z,99963.95
2022-12-14T09:14:21.463Z,99963.39
2022-12-14T09:16:53.823Z,99960.66
2022-12-14T09:19:25.886Z,99954.39
2022-12-14T09:21:58.418Z,99951.07
2022-12-14T09:24:31.178Z,99946.78
2022-12-14T09:27:04.032Z,99939.74
2022-12-14T09:29:36.225Z,99933.67
2022-12-14T09:32:08.963Z,99930.63
2022-12-14T09:34:41.166Z,99924.71
2022-12-14T09:37:14.466Z,99924.44
2022-12-14T09:39:46.597Z,99912.23
2022-12-14T09:42:39.791Z,99913.38
2022-12-14T09:45:19.304Z,99913.53
2022-12-14T09:47:58.843Z,99898.45
2022-12-14T09:50:31.858Z,99896.92
2022-12-14T09:53:07.361Z,99894.34
2022-12-14T09:55:43.815Z,99893.48
2022-12-14T09:58:20.935Z,99874.78
2022-12-14T10:00:59.976Z,99885.78
2022-12-14T10:03:50.465Z,99882.23
2022-12-14T10:06:37.187Z,99882.42
2022-12-14T10:09:18.979Z,99878.71
2022-12-14T10:11:59.155Z,99877.83
2022-12-14T10:14:44.577Z,99877.36
2022-12-14T10:17:29.918Z,99874.17
2022-12-14T10:20:11.466Z,99871.27
2022-12-14T10:22:49.544Z,99859.20
2022-12-14T10:25:25.096Z,99860.05
2022-12-14T10:28:10.729Z,99855.65
2022-12-14T10:30:45.824Z,99850.27
2022-12-14T10:33:22.992Z,99849.57
2022-12-14T10:35:56.863Z,99853.73
2022-12-14T10:38:40.100Z,99816.59
2022-12-14T10:41:21.530Z,99853.70
2022-12-14T10:44:01.695Z,99845.00
2022-12-14T10:46:45.229Z,99839.01
2022-12-14T10:49:23.438Z,99828.33
2022-12-14T10:52:02.910Z,99823.34
2022-12-14T10:54:39.552Z,99819.43
2022-12-14T10:57:14.940Z,99811.14
2022-12-14T11:00:05.643Z,99807.80
2022-12-14T11:02:43.900Z,99803.60
2022-12-14T11:05:29.804Z,99788.23
2022-12-14T11:08:06.839Z,99803.25
2022-12-14T11:10:40.797Z,99798.38
2022-12-14T11:13:18.916Z,99799.83
2022-12-14T11:15:53.574Z,99791.16
2022-12-14T11:18:31.153Z,99788.06
2022-12-14T11:21:05.824Z,99782.65
2022-12-14T11:23:42.957Z,99778.56
2022-12-14T11:26:17.690Z,99772.79
2022-12-14T11:28:50.108Z,99771.73
2022-12-14T11:31:29.958Z,99768.33
2022-12-14T11:34:04.175Z,99765.12
2022-12-14T11:36:39.592Z,99765.12
2022-12-14T11:39:24.189Z,99758.77
2022-12-14T11:42:04.608Z,99755.46
2022-12-14T11:44:38.690Z,99751.73
2022-12-14T11:47:17.193Z,99739.11
2022-12-14T11:49:51.972Z,99741.73
2022-12-14T11:52:26.276Z,99729.14
2022-12-14T11:55:14.286Z,99746.81
2022-12-14T11:57:54.005Z,99748.59
2022-12-14T12:00:28.319Z,99720.54
2022-12-14T12:03:02.252Z,99740.58
2022-12-14T12:05:40.072Z,99735.64
2022-12-14T12:08:23.048Z,99733.46
2022-12-14T12:11:01.772Z,99733.97
2022-12-14T12:13:38.304Z,99735.81
2022-12-14T12:16:17.307Z,99728.37
2022-12-14T12:18:51.976Z,99722.53
2022-12-14T12:21:24.781Z,99707.79
2022-12-14T12:24:04.381Z,99705.11
2022-12-14T12:26:41.247Z,99700.23
2022-12-14T12:29:19.739Z,99696.16
2022-12-14T12:31:56.934Z,99695.91
2022-12-14T12:34:34.044Z,99694.52
2022-12-14T12:37:26.289Z,99691.81
2022-12-14T12:40:04.700Z,99691.71
2022-12-14T12:42:45.399Z,99693.27
2022-12-14T12:45:26.412Z,99688.52
2022-12-14T12:48:05.145Z,99688.05
2022-12-14T12:50:42.452Z,99682.55
2022-12-14T12:53:20.185Z,99676.86
2022-12-14T12:55:54.390Z,99680.49
2022-12-14T12:58:30.756Z,99678.96
2022-12-14T13:01:12.111Z,99682.17
2022-12-14T13:03:47.993Z,99675.21
2022-12-14T13:06:26.824Z,99678.70
2022-12-14T13:09:03.149Z,99676.84
2022-12-14T13:11:39.455Z,99656.81
2022-12-14T13:14:20.408Z,99671.23
2022-12-14T13:16:55.395Z,99663.77
2022-12-14T13:19:55.141Z,99664.70
2022-12-14T13:22:32.516Z,99658.97
2022-12-14T13:25:09.409Z,99659.23
2022-12-14T13:27:58.454Z,99656.63
2022-12-14T13:30:44.680Z,99653.52
2022-12-14T13:33:51.247Z,99649.26
2022-12-14T13:36:41.991Z,99647.93
2022-12-14T13:39:53.089Z,99650.31
2022-12-14T13:42:34.767Z,99649.22
2022-12-14T13:45:17.267Z,99649.16
2022-12-14T13:47:54.138Z,99647.27
2022-12-14T13:50:37.171Z,99644.20
2022-12-14T13:53:18.696Z,99643.67
2022-12-14T13:55:54.283Z,99637.45
2022-12-14T13:58:35.425Z,99638.08
2022-12-14T14:01:09.145Z,99633.94
2022-12-14T14:03:55.479Z,99637.80
2022-12-14T14:06:39.833Z,99632.67
2022-12-14T14:09:58.597Z,99627.18
2022-12-14T14:12:45.593Z,99627.43
2022-12-14T14:15:38.412Z,99625.80
2022-12-14T14:18:18.144Z,99620.72
2022-12-14T14:21:11.329Z,99623.91
2022-12-14T14:23:57.281Z,99623.34
2022-12-14T14:26:33.500Z,99622.73
2022-12-14T14:29:25.917Z,99621.70
2022-12-14T14:32:01.816Z,99622.30
2022-12-14T14:34:46.912Z,99626.53
2022-12-14T14:37:25.337Z,99624.47
2022-12-14T14:40:18.357Z,99616.27
2022-12-14T14:42:58.272Z,99609.11
2022-12-14T14:45:49.143Z,99596.36
2022-12-14T14:48:33.285Z,99608.46
2022-12-14T14:51:21.899Z,99606.92
2022-12-14T14:55:10.765Z,99609.30
2022-12-14T14:57:58.793Z,99606.15
2022-12-14T15:00:33.115Z,99604.09
2022-12-14T15:03:08.557Z,99597.48
2022-12-14T15:05:43.003Z,99592.53
2022-12-14T15:08:22.110Z,99581.98
2022-12-14T15:10:56.090Z,99578.92
2022-12-14T15:13:32.928Z,99571.90
2022-12-14T15:16:05.549Z,99576.06
2022-12-14T15:18:37.708Z,99573.26
2022-12-14T15:21:13.131Z,99557.94
2022-12-14T15:23:49.518Z,99573.05
2022-12-14T15:26:27.122Z,99569.05
2022-12-14T15:29:01.282Z,99563.88
2022-12-14T15:31:38.380Z,99562.73
2022-12-14T15:34:17.863Z,99560.38
2022-12-14T15:36:51.139Z,99561.86
2022-12-14T15:39:38.452Z,99557.83
2022-12-14T15:42:15.839Z,99555.33
2022-12-14T15:44:55.875Z,99549.19
2022-12-14T15:47:30.651Z,99547.21
2022-12-14T15:53:00.388Z,99496.16
2022-12-14T15:55:36.687Z,99534.88
2022-12-14T15:58:17.709Z,99534.06
2022-12-14T16:00:53.436Z,99532.55
2022-12-14T16:03:33.398Z,99532.10
2022-12-14T16:06:07.327Z,99524.34
2022-12-14T16:08:45.983Z,99519.20
2022-12-14T16:11:24.680Z,99517.04
2022-12-14T16:13:59.892Z,99514.20
2022-12-14T16:16:32.600Z,99511.02
2022-12-14T16:19:26.484Z,99503.42
2022-12-14T16:22:21.453Z,99500.23
2022-12-14T16:25:16.807Z,99498.77
2022-12-14T16:27:51.805Z,99494.94
2022-12-14T16:30:31.224Z,99494.34
2022-12-14T16:33:21.331Z,99495.67
2022-12-14T16:36:08.848Z,99458.64
2022-12-14T16:38:56.768Z,99470.32
2022-12-14T16:41:39.677Z,99471.96
2022-12-14T16:44:21.189Z,99472.19
2022-12-14T16:47:26.133Z,99474.88
2022-12-14T16:50:00.476Z,99469.25
2022-12-14T16:52:31.759Z,99470.05
2022-12-14T16:55:16.329Z,99463.84
2022-12-14T16:57:58.739Z,99456.77
2022-12-14T17:00:33.707Z,99450.97
2022-12-14T17:03:09.351Z,99440.69
2022-12-14T17:05:51.413Z,99441.73
2022-12-14T17:08:23.820Z,99435.80
2022-12-14T17:10:56.411Z,99437.52
2022-12-14T17:13:29.399Z,99431.65
2022-12-14T17:16:04.475Z,99438.42
2022-12-14T17:18:39.289Z,99440.84
2022-12-14T17:21:20.510Z,99434.98
2022-12-14T17:23:52.896Z,99430.23
2022-12-14T17:26:28.503Z,99426.43
2022-12-14T17:29:01.396Z,99426.27
2022-12-14T17:31:34.233Z,99426.98
2022-12-14T17:34:06.578Z,99427.15
2022-12-14T17:36:39.363Z,99399.06
2022-12-14T17:39:12.172Z,99419.18
2022-12-14T17:41:46.636Z,99420.63
2022-12-14T17:44:20.599Z,99423.80
2022-12-14T17:46:53.608Z,99416.89
2022-12-14T17:49:35.143Z,99435.48
2022-12-14T17:52:09.035Z,99441.20
2022-12-14T17:54:41.320Z,99437.57
2022-12-14T17:57:18.274Z,99440.59
2022-12-14T18:00:11.542Z,99438.60
2022-12-14T18:02:45.989Z,99437.48
2022-12-14T18:05:22.466Z,99434.52
2022-12-14T18:07:54.895Z,99436.39
2022-12-14T18:10:27.612Z,99438.10
2022-12-14T18:13:01.835Z,99435.98
2022-12-14T18:15:39.209Z,99430.80
2022-12-14T18:18:11.563Z,99434.04
2022-12-14T18:20:46.046Z,99431.45
2022-12-14T18:23:23.165Z,99425.59
2022-12-14T18:25:57.079Z,99419.13
2022-12-14T18:28:29.478Z,99426.81
2022-12-14T18:31:04.255Z,99423.02
2022-12-14T18:33:37.002Z,99429.13
2022-12-14T18:36:13.605Z,99426.44
2022-12-14T18:54:23.971Z,99431.49
2022-12-14T18:56:56.628Z,99434.90
2022-12-14T18:59:29.219Z,99434.84
2022-12-14T19:02:02.217Z,99433.94
2022-12-14T19:04:34.746Z,99429.70
2022-12-14T19:07:07.298Z,99426.95
2022-12-14T19:09:40.719Z,99426.35
2022-12-14T19:12:13.904Z,99427.84
2022-12-14T19:14:49.357Z,99427.09
2022-12-14T19:17:21.766Z,99435.44
2022-12-14T19:19:54.051Z,99435.19
2022-12-14T19:22:29.367Z,99431.36
2022-12-14T19:25:02.012Z,99423.55
2022-12-14T19:28:11.551Z,99413.65
2022-12-14T19:30:27.369Z,99419.17
2022-12-14T19:33:01.238Z,99415.16
2022-12-14T19:35:33.589Z,99424.52
2022-12-14T19:38:06.011Z,99428.02
2022-12-14T19:40:38.312Z,99418.84
2022-12-14T19:43:10.661Z,99428.12
2022-12-14T19:45:43.072Z,99368.32
2022-12-14T19:48:15.626Z,99428.41
2022-12-14T19:50:49.823Z,99411.35
2022-12-14T19:53:23.719Z,99413.21
2022-12-14T19:55:56.808Z,99433.68
2022-12-14T19:58:30.143Z,99434.99
2022-12-14T20:01:02.325Z,99429.50
2022-12-14T20:03:35.323Z,99423.48
2022-12-14T20:06:09.418Z,99426.88
2022-12-14T20:08:41.608Z,99424.63
2022-12-14T20:11:16.090Z,99429.21
2022-12-14T20:13:53.178Z,99430.95
2022-12-14T20:16:29.705Z,99430.47
2022-12-14T20:19:02.043Z,99432.14
2022-12-14T20:21:34.958Z,99430.23
2022-12-14T20:24:08.907Z,99423.42
2022-12-14T20:26:42.021Z,99424.52
2022-12-14T20:29:14.778Z,99374.91
2022-12-14T20:31:47.657Z,99425.96
2022-12-14T20:34:20.255Z,99430.33
2022-12-14T20:36:52.793Z,99426.05
2022-12-14T20:39:25.051Z,99427.33
2022-12-14T20:41:57.434Z,99425.29
2022-12-14T20:44:29.696Z,99427.99
2022-12-14T20:47:02.165Z,99415.21
2022-12-14T20:49:34.695Z,99427.42
2022-12-14T20:52:07.258Z,99428.38
2022-12-14T20:54:40.390Z,99428.05
2022-12-14T20:57:13.144Z,99426.42
2022-12-14T20:59:45.960Z,99428.41
2022-12-14T21:02:20.769Z,99428.55
2022-12-14T21:04:53.967Z,99430.79
2022-12-14T21:07:26.650Z,99425.33
2022-12-14T21:09:59.055Z,99410.52
2022-12-14T21:12:31.697Z,99421.23
2022-12-14T21:15:04.830Z,99420.23
2022-12-14T21:17:37.336Z,99418.33
2022-12-14T21:20:12.261Z,99419.80
2022-12-14T21:22:45.065Z,99425.14
2022-12-14T21:25:17.505Z,99426.73
2022-12-14T21:27:49.952Z,99428.23
2022-12-14T21:30:22.917Z,99427.14
2022-12-14T21:32:55.517Z,99418.05
2022-12-14T21:35:28.174Z,99417.73
2022-12-14T21:38:00.603Z,99414.45
2022-12-14T21:40:50.524Z,99421.30
2022-12-14T21:43:22.852Z,99419.45
2022-12-14T21:45:55.472Z,99415.78
2022-12-14T21:48:27.705Z,99412.84
2022-12-14T21:51:00.332Z,99409.17
2022-12-14T21:53:35.445Z,99406.14
2022-12-14T21:56:23.886Z,99404.89
2022-12-14T21:58:56.789Z,99396.61
2022-12-14T22:01:29.589Z,99413.13
2022-12-14T22:04:03.184Z,99411.71
2022-12-14T22:06:36.481Z,99412.91
2022-12-14T22:09:09.577Z,99413.25
2022-12-14T22:11:41.839Z,99413.87
2022-12-14T22:14:15.474Z,99414.58
2022-12-14T22:16:47.774Z,99409.21
2022-12-14T22:19:22.260Z,99411.70
2022-12-14T22:21:55.540Z,99413.03
2022-12-14T22:24:29.439Z,99411.20
2022-12-14T22:27:02.167Z,99407.45
2022-12-14T22:29:35.129Z,99409.13
2022-12-14T22:32:08.454Z,99409.96
2022-12-14T22:34:40.969Z,99411.23
2022-12-14T22:37:16.722Z,99402.16
2022-12-14T22:39:49.208Z,99401.33
2022-12-14T22:42:21.490Z,99400.77
2022-12-14T22:44:54.798Z,99397.17
2022-12-14T22:47:27.514Z,99397.83
2022-12-14T22:49:59.848Z,99399.25
2022-12-14T22:52:32.095Z,99400.66
2022-12-14T22:55:05.096Z,99398.88
2022-12-14T22:57:41.794Z,99401.20
2022-12-14T23:00:17.180Z,99407.40
2022-12-14T23:02:50.167Z,99411.20
2022-12-14T23:05:22.809Z,99408.63
2022-12-14T23:07:55.072Z,99408.91
2022-12-14T23:10:45.133Z,99396.21
2022-12-14T23:13:40.306Z,99414.36
2022-12-14T23:16:30.327Z,99418.77
2022-12-14T23:19:20.383Z,99420.04
2022-12-14T23:22:10.479Z,99423.61
2022-12-14T23:25:00.896Z,99421.25
2022-12-14T23:27:50.894Z,99418.75
2022-12-14T23:30:41.029Z,99422.96
2022-12-14T23:33:31.396Z,99422.46
2022-12-14T23:36:23.663Z,99423.92
2022-12-14T23:39:13.769Z,99416.74
2022-12-14T23:42:04.344Z,99418.01
2022-12-14T23:44:54.515Z,99418.65
2022-12-14T23:47:44.438Z,99421.23
2022-12-14T23:50:39.616Z,99421.06
2022-12-14T23:53:30.431Z,99422.46
2022-12-14T23:56:22.028Z,99418.70
2022-12-14T23:59:13.931Z,99421.17
